Odysseus — OR9290 — position and weather

sailwx.info

Track history (hours):
 
Tides and Currents Weather Stations Pressure Air Temp Water Temp Dewpoint Dewpoint Depression Visibility Wind Speed Wind Dir Waves Ship Positions

Odysseus

Last reported at 2018-May-26 22:55 UTC. Time now 2018-Jun-22 09:22 UTC.
Position N 38°26' W 009°07'.
Warning: this ship's position is 26 days out of date.

Length 12 m.

Type: Pleasure craft. MMSI: 205929010.

Date/timePositionNaut miles runAvg speedWind from/ knotsBaromVisibWave heightAir tempDewpointWater temp
2018-May-26 22:55N 38°26' W 009°07'0 0.0
2018-May-26 21:49N 38°26' W 009°07'0 0.0
2018-May-26 21:25N 38°26' W 009°07'0 0.0
2018-May-26 20:43N 38°26' W 009°07'0 0.0
2018-May-26 20:19N 38°26' W 009°07'0 0.0
2018-May-26 17:25N 38°26' W 009°07'0 0.0
2018-May-26 16:55N 38°26' W 009°07'0 0.0
2018-May-26 16:28N 38°26' W 009°07'0 0.0
2018-May-26 15:55N 38°26' W 009°07'0 0.0
2018-May-26 15:25N 38°26' W 009°07'0 0.0
2018-May-26 14:58N 38°26' W 009°07'0 0.0
2018-May-26 14:28N 38°26' W 009°07'0 0.0
2018-May-26 13:58N 38°26' W 009°07'0 0.0
2018-May-26 12:20N 38°26' W 009°07'0 0.0
2018-May-26 11:56N 38°26' W 009°07'0 0.0
2018-May-26 11:26N 38°26' W 009°07'0 0.0
2018-May-26 08:50N 38°26' W 009°07'0 0.0
2018-May-26 08:26N 38°26' W 009°07'0 0.0
2018-May-26 07:14N 38°26' W 009°07'0 0.0
2018-May-26 01:56N 38°26' W 009°07'0 0.0
2018-May-25 23:32N 38°26' W 009°07'0 0.0
2018-May-25 22:38N 38°26' W 009°07'0 0.0
2018-May-25 22:14N 38°26' W 009°07'0 0.0
2018-May-25 21:50N 38°26' W 009°07'0 0.0
2018-May-25 21:26N 38°26' W 009°07'0 0.0
2018-May-25 20:56N 38°26' W 009°07'0 0.0
2018-May-25 20:26N 38°26' W 009°07'0 0.0
2018-May-25 19:56N 38°26' W 009°07'0 0.0
2018-May-25 19:14N 38°26' W 009°07'0 0.0
2018-May-25 18:50N 38°26' W 009°07'0 0.0
2018-May-25 18:26N 38°26' W 009°07'0 0.0
2018-May-25 17:38N 38°26' W 009°07'0 0.0
2018-May-25 17:26N 38°26' W 009°07'0 0.0
2018-May-25 16:56N 38°26' W 009°07'0 0.0
2018-May-25 16:26N 38°26' W 009°07'0 0.0
2018-May-25 15:56N 38°26' W 009°07'0 0.0
2018-May-25 15:29N 38°26' W 009°07'0 0.0
2018-May-25 14:56N 38°26' W 009°07'0 0.0
2018-May-25 14:26N 38°26' W 009°07'0 0.0
2018-May-25 13:32N 38°26' W 009°07'0 0.0
2018-May-25 13:20N 38°26' W 009°07'0 0.0
2018-May-25 12:56N 38°26' W 009°07'0 0.0
2018-May-25 12:26N 38°26' W 009°07'0 0.0
2018-May-25 11:56N 38°26' W 009°07'0 0.0
2018-May-25 01:08N 38°26' W 009°07'0 0.0
2018-May-25 00:56N 38°26' W 009°07'0 0.0
2018-May-25 00:14N 38°26' W 009°07'0 0.0
2018-May-24 23:56N 38°26' W 009°07'0 0.0
2018-May-24 03:18N 38°26' W 009°06'0 0.0
2018-May-24 02:51N 38°26' W 009°06'0 0.0
2018-May-24 02:30N 38°26' W 009°06'0 0.0
2018-May-23 21:54N 38°26' W 009°06'0 0.0
2018-May-23 21:27N 38°26' W 009°06'0 0.0
2018-May-23 19:00N 38°26' W 009°06'6 0.7
2018-May-23 09:57N 38°24' W 009°13'2 3.4
2018-May-23 09:28N 38°25' W 009°15'2 3.4
2018-May-23 08:59N 38°27' W 009°16'2 3.7
2018-May-23 08:30N 38°28' W 009°16'2 3.8
2018-May-23 07:57N 38°30' W 009°17'2 4.1
2018-May-23 07:30N 38°32' W 009°18'2 4.2
2018-May-23 07:00N 38°34' W 009°18'2 4.5
2018-May-23 06:30N 38°37' W 009°19'2 4.0
2018-May-23 05:57N 38°39' W 009°19'2 3.8
2018-May-23 05:30N 38°40' W 009°18'2 4.3
2018-May-23 05:00N 38°41' W 009°15'3 5.5
2018-May-23 04:29N 38°42' W 009°12'3 0.2
2018-May-22 10:50N 38°42' W 009°08'1 4.2
2018-May-22 10:30N 38°42' W 009°10'2 4.0
2018-May-22 10:00N 38°42' W 009°12'2 3.7
2018-May-22 09:30N 38°41' W 009°15'2 4.6
2018-May-22 08:58N 38°41' W 009°18'2 4.6
2018-May-22 08:28N 38°41' W 009°21'2 4.7
2018-May-22 07:59N 38°41' W 009°23'1 1.9
2018-May-22 07:23N 38°42' W 009°25'0 0.7
2018-May-22 07:00N 38°41' W 009°25'0 0.0
2018-May-22 06:18N 38°41' W 009°25'0 0.0
2018-May-22 05:00N 38°41' W 009°25'0 0.0
2018-May-22 04:24N 38°41' W 009°25'0 0.0
2018-May-22 03:54N 38°41' W 009°25'0 0.0
2018-May-22 03:18N 38°41' W 009°25'0 0.0
2018-May-22 03:00N 38°41' W 009°25'0 0.0
2018-May-22 02:24N 38°41' W 009°25'0 0.0
2018-May-22 02:00N 38°41' W 009°25'0 0.0
2018-May-22 01:24N 38°41' W 009°25'0 0.0
2018-May-22 00:48N 38°41' W 009°25'0 0.0
2018-May-21 23:54N 38°41' W 009°25'0 0.0
2018-May-21 23:30N 38°41' W 009°25'0 0.0
2018-May-21 22:54N 38°41' W 009°25'0 0.0
2018-May-21 22:24N 38°41' W 009°25'0 0.0
2018-May-21 21:54N 38°41' W 009°25'0 0.0
2018-May-21 21:30N 38°41' W 009°25'0 0.0
2018-May-21 21:00N 38°41' W 009°25'0 0.0
2018-May-21 20:24N 38°41' W 009°25'0 0.0
2018-May-21 20:00N 38°41' W 009°25'0 0.0
2018-May-21 19:24N 38°41' W 009°25'0 0.0
2018-May-21 17:42N 38°41' W 009°25'0 0.0
2018-May-21 17:30N 38°41' W 009°25'0 0.0
2018-May-21 17:00N 38°41' W 009°25'0 0.0
2018-May-21 16:24N 38°41' W 009°25'0 0.0
2018-May-21 16:00N 38°41' W 009°25'0 0.0
2018-May-21 15:24N 38°41' W 009°25'0 0.0
2018-May-21 15:00N 38°41' W 009°25'0 0.0
2018-May-21 14:30N 38°41' W 009°25'0 0.0
2018-May-21 13:54N 38°41' W 009°25'0 0.0
2018-May-21 13:24N 38°41' W 009°25'0 0.0
2018-May-21 10:42N 38°41' W 009°25'0 0.0
2018-May-21 10:30N 38°41' W 009°25'0 0.0
2018-May-21 09:48N 38°41' W 009°25'0 0.0
2018-May-21 09:30N 38°41' W 009°25'0 0.1
2018-May-21 09:00N 38°41' W 009°25'0 0.5
2018-May-21 08:30N 38°42' W 009°25'0 0.3
2018-May-21 07:53N 38°42' W 009°25'0 0.0
2018-May-21 07:26N 38°42' W 009°25'0 0.0
2018-May-21 06:53N 38°42' W 009°25'0 0.0
2018-May-21 06:26N 38°42' W 009°25'0 0.0
2018-May-21 05:59N 38°42' W 009°25'0 0.0
2018-May-21 05:26N 38°42' W 009°25'0 0.0
2018-May-21 04:56N 38°42' W 009°25'0 0.0
2018-May-21 04:26N 38°42' W 009°25'0 0.0
2018-May-21 03:56N 38°42' W 009°25'0 0.0
2018-May-21 03:14N 38°42' W 009°25'0 0.0
2018-May-21 02:50N 38°42' W 009°25'0 0.0
2018-May-21 02:05N 38°42' W 009°25'0 0.0
2018-May-21 01:44N 38°42' W 009°25'0 0.0
2018-May-21 01:26N 38°42' W 009°25'0 0.0
2018-May-21 00:53N 38°42' W 009°25'0 0.0
2018-May-21 00:20N 38°42' W 009°25'0 0.0
2018-May-20 23:56N 38°42' W 009°25'0 0.0
2018-May-20 23:26N 38°42' W 009°25'0 0.0
2018-May-20 22:44N 38°42' W 009°25'0 0.0
2018-May-20 22:14N 38°42' W 009°25'0 0.0
2018-May-20 21:50N 38°42' W 009°25'0 0.0
2018-May-20 20:44N 38°42' W 009°25'0 0.0
2018-May-20 20:08N 38°42' W 009°25'0 0.0
2018-May-20 19:14N 38°42' W 009°25'0 0.0
2018-May-20 17:08N 38°42' W 009°25'0 0.0
2018-May-20 16:47N 38°42' W 009°25'0 0.0
2018-May-20 16:26N 38°42' W 009°25'1 2.6
2018-May-20 16:00N 38°41' W 009°23'2 3.9
2018-May-20 15:30N 38°40' W 009°21'2 2.8
2018-May-20 14:58N 38°40' W 009°20'1 2.4
2018-May-20 14:30N 38°39' W 009°19'3 5.5
2018-May-20 14:00N 38°36' W 009°18'3 5.1
2018-May-20 13:29N 38°34' W 009°17'2 5.0
2018-May-20 13:00N 38°32' W 009°16'2 4.5
2018-May-20 12:29N 38°29' W 009°15'2 4.6
2018-May-20 12:00N 38°27' W 009°15'2 3.7
2018-May-20 11:27N 38°25' W 009°14'4 2.9
2018-May-20 09:58N 38°25' W 009°09'2 4.5
2018-May-20 09:29N 38°26' W 009°06'0 0.4
2018-May-20 08:41N 38°26' W 009°07'0 0.0
2018-May-20 08:29N 38°26' W 009°07'0 0.0
2018-May-19 17:30N 38°26' W 009°07'0 0.0
2018-May-19 17:00N 38°26' W 009°07'0 0.0
2018-May-19 16:30N 38°26' W 009°07'0 0.0
2018-May-19 16:00N 38°26' W 009°07'0 0.0
2018-May-19 15:30N 38°26' W 009°07'0 0.0
2018-May-19 15:00N 38°26' W 009°07'0 0.0
2018-May-19 14:30N 38°26' W 009°07'0 0.0
2018-May-19 14:00N 38°26' W 009°07'0 0.0
2018-May-19 13:30N 38°26' W 009°07'0 0.0
2018-May-19 13:00N 38°26' W 009°07'0 0.0
2018-May-19 12:30N 38°26' W 009°07'0 0.0
2018-May-19 12:00N 38°26' W 009°07'0 0.0
2018-May-19 11:24N 38°26' W 009°07'  
Track history (hours):
 
Tides and Currents Weather Stations Pressure Air Temp Water Temp Dewpoint Dewpoint Depression Visibility Wind Speed Wind Dir Waves Ship Positions

Odysseus

Last reported at 2018-May-26 22:55 UTC. Time now 2018-Jun-22 09:22 UTC.
Position N 38°26' W 009°07'.
Warning: this ship's position is 26 days out of date.

Length 12 m.

Type: Pleasure craft. MMSI: 205929010.

Date/timePositionNaut miles runAvg speedWind from/ knotsBaromVisibWave heightAir tempDewpointWater temp
2018-May-26 22:55N 38°26' W 009°07'0 0.0
2018-May-26 21:49N 38°26' W 009°07'0 0.0
2018-May-26 21:25N 38°26' W 009°07'0 0.0
2018-May-26 20:43N 38°26' W 009°07'0 0.0
2018-May-26 20:19N 38°26' W 009°07'0 0.0
2018-May-26 17:25N 38°26' W 009°07'0 0.0
2018-May-26 16:55N 38°26' W 009°07'0 0.0
2018-May-26 16:28N 38°26' W 009°07'0 0.0
2018-May-26 15:55N 38°26' W 009°07'0 0.0
2018-May-26 15:25N 38°26' W 009°07'0 0.0
2018-May-26 14:58N 38°26' W 009°07'0 0.0
2018-May-26 14:28N 38°26' W 009°07'0 0.0
2018-May-26 13:58N 38°26' W 009°07'0 0.0
2018-May-26 12:20N 38°26' W 009°07'0 0.0
2018-May-26 11:56N 38°26' W 009°07'0 0.0
2018-May-26 11:26N 38°26' W 009°07'0 0.0
2018-May-26 08:50N 38°26' W 009°07'0 0.0
2018-May-26 08:26N 38°26' W 009°07'0 0.0
2018-May-26 07:14N 38°26' W 009°07'0 0.0
2018-May-26 01:56N 38°26' W 009°07'0 0.0
2018-May-25 23:32N 38°26' W 009°07'0 0.0
2018-May-25 22:38N 38°26' W 009°07'0 0.0
2018-May-25 22:14N 38°26' W 009°07'0 0.0
2018-May-25 21:50N 38°26' W 009°07'0 0.0
2018-May-25 21:26N 38°26' W 009°07'0 0.0
2018-May-25 20:56N 38°26' W 009°07'0 0.0
2018-May-25 20:26N 38°26' W 009°07'0 0.0
2018-May-25 19:56N 38°26' W 009°07'0 0.0
2018-May-25 19:14N 38°26' W 009°07'0 0.0
2018-May-25 18:50N 38°26' W 009°07'0 0.0
2018-May-25 18:26N 38°26' W 009°07'0 0.0
2018-May-25 17:38N 38°26' W 009°07'0 0.0
2018-May-25 17:26N 38°26' W 009°07'0 0.0
2018-May-25 16:56N 38°26' W 009°07'0 0.0
2018-May-25 16:26N 38°26' W 009°07'0 0.0
2018-May-25 15:56N 38°26' W 009°07'0 0.0
2018-May-25 15:29N 38°26' W 009°07'0 0.0
2018-May-25 14:56N 38°26' W 009°07'0 0.0
2018-May-25 14:26N 38°26' W 009°07'0 0.0
2018-May-25 13:32N 38°26' W 009°07'0 0.0
2018-May-25 13:20N 38°26' W 009°07'0 0.0
2018-May-25 12:56N 38°26' W 009°07'0 0.0
2018-May-25 12:26N 38°26' W 009°07'0 0.0
2018-May-25 11:56N 38°26' W 009°07'0 0.0
2018-May-25 01:08N 38°26' W 009°07'0 0.0
2018-May-25 00:56N 38°26' W 009°07'0 0.0
2018-May-25 00:14N 38°26' W 009°07'0 0.0
2018-May-24 23:56N 38°26' W 009°07'0 0.0
2018-May-24 03:18N 38°26' W 009°06'0 0.0
2018-May-24 02:51N 38°26' W 009°06'0 0.0
2018-May-24 02:30N 38°26' W 009°06'0 0.0
2018-May-23 21:54N 38°26' W 009°06'0 0.0
2018-May-23 21:27N 38°26' W 009°06'0 0.0
2018-May-23 19:00N 38°26' W 009°06'6 0.7
2018-May-23 09:57N 38°24' W 009°13'2 3.4
2018-May-23 09:28N 38°25' W 009°15'2 3.4
2018-May-23 08:59N 38°27' W 009°16'2 3.7
2018-May-23 08:30N 38°28' W 009°16'2 3.8
2018-May-23 07:57N 38°30' W 009°17'2 4.1
2018-May-23 07:30N 38°32' W 009°18'2 4.2
2018-May-23 07:00N 38°34' W 009°18'2 4.5
2018-May-23 06:30N 38°37' W 009°19'2 4.0
2018-May-23 05:57N 38°39' W 009°19'2 3.8
2018-May-23 05:30N 38°40' W 009°18'2 4.3
2018-May-23 05:00N 38°41' W 009°15'3 5.5
2018-May-23 04:29N 38°42' W 009°12'3 0.2
2018-May-22 10:50N 38°42' W 009°08'1 4.2
2018-May-22 10:30N 38°42' W 009°10'2 4.0
2018-May-22 10:00N 38°42' W 009°12'2 3.7
2018-May-22 09:30N 38°41' W 009°15'2 4.6
2018-May-22 08:58N 38°41' W 009°18'2 4.6
2018-May-22 08:28N 38°41' W 009°21'2 4.7
2018-May-22 07:59N 38°41' W 009°23'1 1.9
2018-May-22 07:23N 38°42' W 009°25'0 0.7
2018-May-22 07:00N 38°41' W 009°25'0 0.0
2018-May-22 06:18N 38°41' W 009°25'0 0.0
2018-May-22 05:00N 38°41' W 009°25'0 0.0
2018-May-22 04:24N 38°41' W 009°25'0 0.0
2018-May-22 03:54N 38°41' W 009°25'0 0.0
2018-May-22 03:18N 38°41' W 009°25'0 0.0
2018-May-22 03:00N 38°41' W 009°25'0 0.0
2018-May-22 02:24N 38°41' W 009°25'0 0.0
2018-May-22 02:00N 38°41' W 009°25'0 0.0
2018-May-22 01:24N 38°41' W 009°25'0 0.0
2018-May-22 00:48N 38°41' W 009°25'0 0.0
2018-May-21 23:54N 38°41' W 009°25'0 0.0
2018-May-21 23:30N 38°41' W 009°25'0 0.0
2018-May-21 22:54N 38°41' W 009°25'0 0.0
2018-May-21 22:24N 38°41' W 009°25'0 0.0
2018-May-21 21:54N 38°41' W 009°25'0 0.0
2018-May-21 21:30N 38°41' W 009°25'0 0.0
2018-May-21 21:00N 38°41' W 009°25'0 0.0
2018-May-21 20:24N 38°41' W 009°25'0 0.0
2018-May-21 20:00N 38°41' W 009°25'0 0.0
2018-May-21 19:24N 38°41' W 009°25'0 0.0
2018-May-21 17:42N 38°41' W 009°25'0 0.0
2018-May-21 17:30N 38°41' W 009°25'0 0.0
2018-May-21 17:00N 38°41' W 009°25'0 0.0
2018-May-21 16:24N 38°41' W 009°25'0 0.0
2018-May-21 16:00N 38°41' W 009°25'0 0.0
2018-May-21 15:24N 38°41' W 009°25'0 0.0
2018-May-21 15:00N 38°41' W 009°25'0 0.0
2018-May-21 14:30N 38°41' W 009°25'0 0.0
2018-May-21 13:54N 38°41' W 009°25'0 0.0
2018-May-21 13:24N 38°41' W 009°25'0 0.0
2018-May-21 10:42N 38°41' W 009°25'0 0.0
2018-May-21 10:30N 38°41' W 009°25'0 0.0
2018-May-21 09:48N 38°41' W 009°25'0 0.0
2018-May-21 09:30N 38°41' W 009°25'0 0.1
2018-May-21 09:00N 38°41' W 009°25'0 0.5
2018-May-21 08:30N 38°42' W 009°25'0 0.3
2018-May-21 07:53N 38°42' W 009°25'0 0.0
2018-May-21 07:26N 38°42' W 009°25'0 0.0
2018-May-21 06:53N 38°42' W 009°25'0 0.0
2018-May-21 06:26N 38°42' W 009°25'0 0.0
2018-May-21 05:59N 38°42' W 009°25'0 0.0
2018-May-21 05:26N 38°42' W 009°25'0 0.0
2018-May-21 04:56N 38°42' W 009°25'0 0.0
2018-May-21 04:26N 38°42' W 009°25'0 0.0
2018-May-21 03:56N 38°42' W 009°25'0 0.0
2018-May-21 03:14N 38°42' W 009°25'0 0.0
2018-May-21 02:50N 38°42' W 009°25'0 0.0
2018-May-21 02:05N 38°42' W 009°25'0 0.0
2018-May-21 01:44N 38°42' W 009°25'0 0.0
2018-May-21 01:26N 38°42' W 009°25'0 0.0
2018-May-21 00:53N 38°42' W 009°25'0 0.0
2018-May-21 00:20N 38°42' W 009°25'0 0.0
2018-May-20 23:56N 38°42' W 009°25'0 0.0
2018-May-20 23:26N 38°42' W 009°25'0 0.0
2018-May-20 22:44N 38°42' W 009°25'0 0.0
2018-May-20 22:14N 38°42' W 009°25'0 0.0
2018-May-20 21:50N 38°42' W 009°25'0 0.0
2018-May-20 20:44N 38°42' W 009°25'0 0.0
2018-May-20 20:08N 38°42' W 009°25'0 0.0
2018-May-20 19:14N 38°42' W 009°25'0 0.0
2018-May-20 17:08N 38°42' W 009°25'0 0.0
2018-May-20 16:47N 38°42' W 009°25'0 0.0
2018-May-20 16:26N 38°42' W 009°25'1 2.6
2018-May-20 16:00N 38°41' W 009°23'2 3.9
2018-May-20 15:30N 38°40' W 009°21'2 2.8
2018-May-20 14:58N 38°40' W 009°20'1 2.4
2018-May-20 14:30N 38°39' W 009°19'3 5.5
2018-May-20 14:00N 38°36' W 009°18'3 5.1
2018-May-20 13:29N 38°34' W 009°17'2 5.0
2018-May-20 13:00N 38°32' W 009°16'2 4.5
2018-May-20 12:29N 38°29' W 009°15'2 4.6
2018-May-20 12:00N 38°27' W 009°15'2 3.7
2018-May-20 11:27N 38°25' W 009°14'4 2.9
2018-May-20 09:58N 38°25' W 009°09'2 4.5
2018-May-20 09:29N 38°26' W 009°06'0 0.4
2018-May-20 08:41N 38°26' W 009°07'0 0.0
2018-May-20 08:29N 38°26' W 009°07'0 0.0
2018-May-19 17:30N 38°26' W 009°07'0 0.0
2018-May-19 17:00N 38°26' W 009°07'0 0.0
2018-May-19 16:30N 38°26' W 009°07'0 0.0
2018-May-19 16:00N 38°26' W 009°07'0 0.0
2018-May-19 15:30N 38°26' W 009°07'0 0.0
2018-May-19 15:00N 38°26' W 009°07'0 0.0
2018-May-19 14:30N 38°26' W 009°07'0 0.0
2018-May-19 14:00N 38°26' W 009°07'0 0.0
2018-May-19 13:30N 38°26' W 009°07'0 0.0
2018-May-19 13:00N 38°26' W 009°07'0 0.0
2018-May-19 12:30N 38°26' W 009°07'0 0.0
2018-May-19 12:00N 38°26' W 009°07'0 0.0
2018-May-19 11:24N 38°26' W 009°07'  

Dump ship's entire track history